sensor_id;sensor_type;location;lat;lon;timestamp;pressure;altitude;pressure_sealevel;temperature;humidity
66668;BME280;57205;51.438;-2.006;2022-10-30T00:00:32;100608.22;;;13.48;100.00
66668;BME280;57205;51.438;-2.006;2022-10-30T00:02:57;100607.69;;;13.46;100.00
66668;BME280;57205;51.438;-2.006;2022-10-30T00:05:22;100603.69;;;13.43;100.00
66668;BME280;57205;51.438;-2.006;2022-10-30T00:07:48;100607.47;;;13.42;100.00
66668;BME280;57205;51.438;-2.006;2022-10-30T00:10:13;100610.44;;;13.41;100.00
66668;BME280;57205;51.438;-2.006;2022-10-30T00:12:39;100601.06;;;13.38;100.00
66668;BME280;57205;51.438;-2.006;2022-10-30T00:15:05;100598.66;;;13.37;100.00
66668;BME280;57205;51.438;-2.006;2022-10-30T00:17:30;100608.88;;;13.35;100.00
66668;BME280;57205;51.438;-2.006;2022-10-30T00:19:55;100609.97;;;13.34;100.00
66668;BME280;57205;51.438;-2.006;2022-10-30T00:22:21;100606.47;;;13.33;100.00
66668;BME280;57205;51.438;-2.006;2022-10-30T00:24:46;100604.34;;;13.30;100.00
66668;BME280;57205;51.438;-2.006;2022-10-30T00:27:11;100603.56;;;13.30;100.00
66668;BME280;57205;51.438;-2.006;2022-10-30T00:29:37;100606.53;;;13.28;100.00
66668;BME280;57205;51.438;-2.006;2022-10-30T00:32:02;100600.09;;;13.24;100.00
66668;BME280;57205;51.438;-2.006;2022-10-30T00:34:28;100595.03;;;13.23;100.00
66668;BME280;57205;51.438;-2.006;2022-10-30T00:36:53;100592.88;;;13.20;100.00
66668;BME280;57205;51.438;-2.006;2022-10-30T00:39:18;100586.47;;;13.16;100.00
66668;BME280;57205;51.438;-2.006;2022-10-30T00:41:43;100592.66;;;13.16;100.00
66668;BME280;57205;51.438;-2.006;2022-10-30T00:46:53;100593.22;;;13.13;100.00
66668;BME280;57205;51.438;-2.006;2022-10-30T00:49:18;100584.34;;;13.13;100.00
66668;BME280;57205;51.438;-2.006;2022-10-30T00:51:47;100588.38;;;13.10;100.00
66668;BME280;57205;51.438;-2.006;2022-10-30T00:54:14;100585.47;;;13.07;100.00
66668;BME280;57205;51.438;-2.006;2022-10-30T00:56:40;100584.94;;;13.05;100.00
66668;BME280;57205;51.438;-2.006;2022-10-30T00:59:07;100591.66;;;13.02;100.00
66668;BME280;57205;51.438;-2.006;2022-10-30T01:01:35;100589.53;;;12.99;100.00
66668;BME280;57205;51.438;-2.006;2022-10-30T01:04:02;100588.47;;;12.95;100.00
66668;BME280;57205;51.438;-2.006;2022-10-30T01:06:28;100584.19;;;12.94;100.00
66668;BME280;57205;51.438;-2.006;2022-10-30T01:08:56;100588.75;;;12.94;100.00
66668;BME280;57205;51.438;-2.006;2022-10-30T01:11:21;100590.41;;;12.90;100.00
66668;BME280;57205;51.438;-2.006;2022-10-30T01:13:47;100587.47;;;12.86;100.00
66668;BME280;57205;51.438;-2.006;2022-10-30T01:21:31;100598.00;;;12.77;100.00
66668;BME280;57205;51.438;-2.006;2022-10-30T01:24:14;100599.06;;;12.76;100.00
66668;BME280;57205;51.438;-2.006;2022-10-30T01:32:30;100587.63;;;12.66;100.00
66668;BME280;57205;51.438;-2.006;2022-10-30T01:40:19;100568.88;;;12.61;100.00
66668;BME280;57205;51.438;-2.006;2022-10-30T01:42:52;100566.19;;;12.61;100.00
66668;BME280;57205;51.438;-2.006;2022-10-30T01:45:23;100564.31;;;12.61;100.00
66668;BME280;57205;51.438;-2.006;2022-10-30T01:47:56;100561.09;;;12.59;100.00
66668;BME280;57205;51.438;-2.006;2022-10-30T01:55:40;100569.97;;;12.55;100.00
66668;BME280;57205;51.438;-2.006;2022-10-30T02:00:38;100564.34;;;12.51;100.00
66668;BME280;57205;51.438;-2.006;2022-10-30T02:03:05;100564.13;;;12.48;100.00
66668;BME280;57205;51.438;-2.006;2022-10-30T02:05:40;100569.75;;;12.46;100.00
66668;BME280;57205;51.438;-2.006;2022-10-30T02:08:06;100573.78;;;12.44;100.00
66668;BME280;57205;51.438;-2.006;2022-10-30T02:10:32;100563.63;;;12.41;100.00
66668;BME280;57205;51.438;-2.006;2022-10-30T02:12:58;100564.97;;;12.38;100.00
66668;BME280;57205;51.438;-2.006;2022-10-30T02:15:23;100569.81;;;12.36;100.00
66668;BME280;57205;51.438;-2.006;2022-10-30T02:17:49;100565.78;;;12.34;100.00
66668;BME280;57205;51.438;-2.006;2022-10-30T02:20:18;100576.00;;;12.32;100.00
66668;BME280;57205;51.438;-2.006;2022-10-30T02:22:43;100568.22;;;12.30;100.00
66668;BME280;57205;51.438;-2.006;2022-10-30T02:25:09;100573.06;;;12.28;100.00
66668;BME280;57205;51.438;-2.006;2022-10-30T02:27:34;100565.00;;;12.28;100.00
66668;BME280;57205;51.438;-2.006;2022-10-30T02:29:59;100570.91;;;12.30;100.00
66668;BME280;57205;51.438;-2.006;2022-10-30T02:32:25;100562.84;;;12.30;100.00
66668;BME280;57205;51.438;-2.006;2022-10-30T02:34:50;100565.00;;;12.28;100.00
66668;BME280;57205;51.438;-2.006;2022-10-30T02:37:15;100547.31;;;12.27;100.00
66668;BME280;57205;51.438;-2.006;2022-10-30T02:39:40;100554.03;;;12.25;100.00
66668;BME280;57205;51.438;-2.006;2022-10-30T02:42:06;100545.22;;;12.24;100.00
66668;BME280;57205;51.438;-2.006;2022-10-30T02:44:31;100545.75;;;12.21;100.00
66668;BME280;57205;51.438;-2.006;2022-10-30T02:46:56;100542.53;;;12.19;100.00
66668;BME280;57205;51.438;-2.006;2022-10-30T02:49:22;100552.72;;;12.17;100.00
66668;BME280;57205;51.438;-2.006;2022-10-30T02:51:47;100563.47;;;12.17;100.00
66668;BME280;57205;51.438;-2.006;2022-10-30T02:54:12;100575.28;;;12.16;100.00
66668;BME280;57205;51.438;-2.006;2022-10-30T02:56:41;100577.44;;;12.14;100.00
66668;BME280;57205;51.438;-2.006;2022-10-30T02:59:06;100574.22;;;12.12;100.00
66668;BME280;57205;51.438;-2.006;2022-10-30T03:01:31;100576.34;;;12.15;100.00
66668;BME280;57205;51.438;-2.006;2022-10-30T03:03:56;100569.38;;;12.14;100.00
66668;BME280;57205;51.438;-2.006;2022-10-30T03:06:22;100558.66;;;12.14;100.00
66668;BME280;57205;51.438;-2.006;2022-10-30T03:08:47;100542.03;;;12.12;100.00
66668;BME280;57205;51.438;-2.006;2022-10-30T03:11:14;100546.31;;;12.13;100.00
66668;BME280;57205;51.438;-2.006;2022-10-30T03:13:39;100539.06;;;12.14;100.00
66668;BME280;57205;51.438;-2.006;2022-10-30T03:16:06;100542.56;;;12.14;100.00
66668;BME280;57205;51.438;-2.006;2022-10-30T03:18:33;100549.53;;;12.15;100.00
66668;BME280;57205;51.438;-2.006;2022-10-30T03:20:59;100555.69;;;12.16;100.00
66668;BME280;57205;51.438;-2.006;2022-10-30T03:23:25;100554.06;;;12.20;100.00
66668;BME280;57205;51.438;-2.006;2022-10-30T03:25:51;100551.09;;;12.21;100.00
66668;BME280;57205;51.438;-2.006;2022-10-30T03:28:18;100563.19;;;12.24;100.00
66668;BME280;57205;51.438;-2.006;2022-10-30T03:30:43;100574.97;;;12.28;100.00
66668;BME280;57205;51.438;-2.006;2022-10-30T03:33:08;100567.69;;;12.33;100.00
66668;BME280;57205;51.438;-2.006;2022-10-30T03:35:34;100556.91;;;12.38;100.00
66668;BME280;57205;51.438;-2.006;2022-10-30T03:38:00;100550.44;;;12.44;100.00
66668;BME280;57205;51.438;-2.006;2022-10-30T03:40:25;100550.41;;;12.49;100.00
66668;BME280;57205;51.438;-2.006;2022-10-30T03:42:50;100549.06;;;12.52;100.00
66668;BME280;57205;51.438;-2.006;2022-10-30T03:45:16;100541.53;;;12.54;100.00
66668;BME280;57205;51.438;-2.006;2022-10-30T03:47:41;100520.84;;;12.54;100.00
66668;BME280;57205;51.438;-2.006;2022-10-30T03:50:06;100513.31;;;12.56;100.00
66668;BME280;57205;51.438;-2.006;2022-10-30T03:52:31;100505.50;;;12.60;100.00
66668;BME280;57205;51.438;-2.006;2022-10-30T03:54:57;100510.88;;;12.60;100.00
66668;BME280;57205;51.438;-2.006;2022-10-30T03:57:22;100513.03;;;12.63;100.00
66668;BME280;57205;51.438;-2.006;2022-10-30T03:59:47;100507.06;;;12.66;100.00
66668;BME280;57205;51.438;-2.006;2022-10-30T04:02:13;100497.66;;;12.68;100.00
66668;BME280;57205;51.438;-2.006;2022-10-30T04:04:38;100476.38;;;12.77;100.00
66668;BME280;57205;51.438;-2.006;2022-10-30T04:07:03;100466.16;;;12.79;100.00
66668;BME280;57205;51.438;-2.006;2022-10-30T04:09:28;100462.41;;;12.80;100.00
66668;BME280;57205;51.438;-2.006;2022-10-30T04:11:54;100486.81;;;12.84;100.00
66668;BME280;57205;51.438;-2.006;2022-10-30T04:14:19;100490.03;;;12.86;100.00
66668;BME280;57205;51.438;-2.006;2022-10-30T04:16:44;100479.81;;;12.83;100.00
66668;BME280;57205;51.438;-2.006;2022-10-30T04:19:09;100480.63;;;12.83;100.00
66668;BME280;57205;51.438;-2.006;2022-10-30T04:21:35;100476.63;;;12.81;100.00
66668;BME280;57205;51.438;-2.006;2022-10-30T04:24:00;100492.72;;;12.81;100.00
66668;BME280;57205;51.438;-2.006;2022-10-30T04:26:25;100508.84;;;12.81;100.00
66668;BME280;57205;51.438;-2.006;2022-10-30T04:28:52;100528.44;;;12.81;100.00
66668;BME280;57205;51.438;-2.006;2022-10-30T04:31:17;100527.34;;;12.82;100.00
66668;BME280;57205;51.438;-2.006;2022-10-30T04:33:42;100523.03;;;12.86;100.00
66668;BME280;57205;51.438;-2.006;2022-10-30T04:36:07;100516.88;;;12.86;100.00
66668;BME280;57205;51.438;-2.006;2022-10-30T04:38:33;100521.66;;;12.89;100.00
66668;BME280;57205;51.438;-2.006;2022-10-30T04:40:58;100530.25;;;12.91;100.00
66668;BME280;57205;51.438;-2.006;2022-10-30T04:43:23;100525.41;;;12.93;100.00
66668;BME280;57205;51.438;-2.006;2022-10-30T04:45:49;100524.88;;;12.91;100.00
66668;BME280;57205;51.438;-2.006;2022-10-30T04:48:15;100526.19;;;12.93;100.00
66668;BME280;57205;51.438;-2.006;2022-10-30T04:50:40;100528.88;;;12.93;100.00
66668;BME280;57205;51.438;-2.006;2022-10-30T04:53:10;100521.91;;;12.92;100.00
66668;BME280;57205;51.438;-2.006;2022-10-30T04:55:36;100513.03;;;12.92;100.00
66668;BME280;57205;51.438;-2.006;2022-10-30T04:58:01;100506.59;;;12.93;100.00
66668;BME280;57205;51.438;-2.006;2022-10-30T05:00:29;100510.59;;;12.95;100.00
66668;BME280;57205;51.438;-2.006;2022-10-30T05:02:59;100511.09;;;12.97;100.00
66668;BME280;57205;51.438;-2.006;2022-10-30T05:05:24;100514.88;;;12.96;100.00
66668;BME280;57205;51.438;-2.006;2022-10-30T05:07:50;100529.13;;;12.97;100.00
66668;BME280;57205;51.438;-2.006;2022-10-30T05:10:15;100526.44;;;12.97;100.00
66668;BME280;57205;51.438;-2.006;2022-10-30T05:12:42;100530.16;;;13.01;100.00
66668;BME280;57205;51.438;-2.006;2022-10-30T05:15:09;100530.69;;;13.03;100.00
66668;BME280;57205;51.438;-2.006;2022-10-30T05:17:34;100526.38;;;13.02;100.00
66668;BME280;57205;51.438;-2.006;2022-10-30T05:19:59;100524.25;;;13.04;100.00
66668;BME280;57205;51.438;-2.006;2022-10-30T05:22:25;100526.38;;;13.07;100.00
66668;BME280;57205;51.438;-2.006;2022-10-30T05:24:50;100521.53;;;13.09;100.00
66668;BME280;57205;51.438;-2.006;2022-10-30T05:27:15;100523.69;;;13.07;100.00
66668;BME280;57205;51.438;-2.006;2022-10-30T05:29:40;100521.53;;;13.09;100.00
66668;BME280;57205;51.438;-2.006;2022-10-30T05:32:06;100519.13;;;13.07;100.00
66668;BME280;57205;51.438;-2.006;2022-10-30T05:34:31;100526.38;;;13.07;100.00
66668;BME280;57205;51.438;-2.006;2022-10-30T05:36:56;100536.59;;;13.05;100.00
66668;BME280;57205;51.438;-2.006;2022-10-30T05:39:22;100535.81;;;13.04;100.00
66668;BME280;57205;51.438;-2.006;2022-10-30T05:41:47;100534.19;;;13.03;100.00
66668;BME280;57205;51.438;-2.006;2022-10-30T05:44:12;100537.63;;;13.09;100.00
66668;BME280;57205;51.438;-2.006;2022-10-30T05:46:37;100529.88;;;13.07;100.00
66668;BME280;57205;51.438;-2.006;2022-10-30T05:49:03;100522.09;;;13.06;100.00
66668;BME280;57205;51.438;-2.006;2022-10-30T05:51:28;100521.56;;;13.04;100.00
66668;BME280;57205;51.438;-2.006;2022-10-30T05:53:53;100539.28;;;13.05;100.00
66668;BME280;57205;51.438;-2.006;2022-10-30T05:56:19;100532.03;;;13.05;100.00
66668;BME280;57205;51.438;-2.006;2022-10-30T05:58:44;100517.78;;;13.05;100.00
66668;BME280;57205;51.438;-2.006;2022-10-30T06:01:12;100518.06;;;13.03;100.00
66668;BME280;57205;51.438;-2.006;2022-10-30T06:03:37;100513.50;;;13.04;100.00
66668;BME280;57205;51.438;-2.006;2022-10-30T06:06:02;100502.78;;;13.04;100.00
66668;BME280;57205;51.438;-2.006;2022-10-30T06:08:27;100502.78;;;13.04;100.00
66668;BME280;57205;51.438;-2.006;2022-10-30T06:10:53;100509.22;;;13.03;100.00
66668;BME280;57205;51.438;-2.006;2022-10-30T06:13:19;100503.56;;;13.04;100.00
66668;BME280;57205;51.438;-2.006;2022-10-30T06:15:44;100498.97;;;13.05;100.00
66668;BME280;57205;51.438;-2.006;2022-10-30T06:18:09;100493.63;;;13.05;100.00
66668;BME280;57205;51.438;-2.006;2022-10-30T06:20:35;100494.16;;;13.02;100.00
66668;BME280;57205;51.438;-2.006;2022-10-30T06:23:01;100506.50;;;13.08;100.00
66668;BME280;57205;51.438;-2.006;2022-10-30T06:25:27;100505.16;;;13.05;100.00
66668;BME280;57205;51.438;-2.006;2022-10-30T06:27:53;100511.34;;;13.06;100.00
66668;BME280;57205;51.438;-2.006;2022-10-30T06:30:18;100517.25;;;13.08;100.00
66668;BME280;57205;51.438;-2.006;2022-10-30T06:32:44;100509.97;;;13.08;100.00
66668;BME280;57205;51.438;-2.006;2022-10-30T06:35:09;100501.91;;;13.08;100.00
66668;BME280;57205;51.438;-2.006;2022-10-30T06:37:35;100510.78;;;13.09;100.00
66668;BME280;57205;51.438;-2.006;2022-10-30T06:40:03;100516.09;;;13.14;100.00
66668;BME280;57205;51.438;-2.006;2022-10-30T06:42:28;100516.59;;;13.16;100.00
66668;BME280;57205;51.438;-2.006;2022-10-30T06:44:54;100511.53;;;13.14;100.00
66668;BME280;57205;51.438;-2.006;2022-10-30T06:47:19;100508.56;;;13.16;100.00
66668;BME280;57205;51.438;-2.006;2022-10-30T06:49:44;100516.84;;;13.19;100.00
66668;BME280;57205;51.438;-2.006;2022-10-30T06:52:10;100516.84;;;13.19;100.00
66668;BME280;57205;51.438;-2.006;2022-10-30T06:54:35;100505.31;;;13.19;100.00
66668;BME280;57205;51.438;-2.006;2022-10-30T06:57:00;100505.56;;;13.17;100.00
66668;BME280;57205;51.438;-2.006;2022-10-30T06:59:26;100513.91;;;13.21;100.00
66668;BME280;57205;51.438;-2.006;2022-10-30T07:01:51;100502.63;;;13.19;100.00
66668;BME280;57205;51.438;-2.006;2022-10-30T07:04:16;100508.53;;;13.21;100.00
66668;BME280;57205;51.438;-2.006;2022-10-30T07:06:41;100510.41;;;13.20;100.00
66668;BME280;57205;51.438;-2.006;2022-10-30T07:09:07;100495.59;;;13.23;100.00
66668;BME280;57205;51.438;-2.006;2022-10-30T07:11:32;100502.00;;;13.27;100.00
66668;BME280;57205;51.438;-2.006;2022-10-30T07:13:57;100492.56;;;13.29;100.00
66668;BME280;57205;51.438;-2.006;2022-10-30T07:16:23;100505.44;;;13.32;100.00
66668;BME280;57205;51.438;-2.006;2022-10-30T07:18:51;100505.16;;;13.34;99.78
66668;BME280;57205;51.438;-2.006;2022-10-30T07:21:16;100507.84;;;13.34;99.74
66668;BME280;57205;51.438;-2.006;2022-10-30T07:23:41;100512.88;;;13.40;99.64
66668;BME280;57205;51.438;-2.006;2022-10-30T07:26:07;100509.91;;;13.42;99.48
66668;BME280;57205;51.438;-2.006;2022-10-30T07:28:32;100513.69;;;13.41;99.54
66668;BME280;57205;51.438;-2.006;2022-10-30T07:30:57;100516.38;;;13.41;99.82
66668;BME280;57205;51.438;-2.006;2022-10-30T07:33:23;100522.25;;;13.43;100.00
66668;BME280;57205;51.438;-2.006;2022-10-30T07:35:48;100516.09;;;13.42;100.00
66668;BME280;57205;51.438;-2.006;2022-10-30T07:38:13;100514.97;;;13.43;100.00
66668;BME280;57205;51.438;-2.006;2022-10-30T07:40:39;100505.78;;;13.49;99.79
66668;BME280;57205;51.438;-2.006;2022-10-30T07:43:04;100492.06;;;13.51;99.49
66668;BME280;57205;51.438;-2.006;2022-10-30T07:45:29;100485.31;;;13.53;99.36
66668;BME280;57205;51.438;-2.006;2022-10-30T07:47:55;100480.16;;;13.57;98.84
66668;BME280;57205;51.438;-2.006;2022-10-30T07:50:20;100485.75;;;13.60;98.59
66668;BME280;57205;51.438;-2.006;2022-10-30T07:52:46;100481.19;;;13.61;98.20
66668;BME280;57205;51.438;-2.006;2022-10-30T07:55:12;100486.28;;;13.62;98.34
66668;BME280;57205;51.438;-2.006;2022-10-30T07:57:38;100480.59;;;13.64;98.17
66668;BME280;57205;51.438;-2.006;2022-10-30T08:00:05;100491.38;;;13.64;98.08
66668;BME280;57205;51.438;-2.006;2022-10-30T08:02:30;100489.19;;;13.66;98.21
66668;BME280;57205;51.438;-2.006;2022-10-30T08:04:56;100486.72;;;13.69;98.24
66668;BME280;57205;51.438;-2.006;2022-10-30T08:07:21;100503.59;;;13.75;97.54
66668;BME280;57205;51.438;-2.006;2022-10-30T08:09:46;100499.25;;;13.79;97.27
66668;BME280;57205;51.438;-2.006;2022-10-30T08:12:12;100492.50;;;13.82;97.14
66668;BME280;57205;51.438;-2.006;2022-10-30T08:14:37;100495.94;;;13.87;96.63
66668;BME280;57205;51.438;-2.006;2022-10-30T08:17:02;100494.31;;;13.86;96.41
66668;BME280;57205;51.438;-2.006;2022-10-30T08:19:29;100492.66;;;13.90;95.83
66668;BME280;57205;51.438;-2.006;2022-10-30T08:21:54;100506.63;;;13.92;95.91
66668;BME280;57205;51.438;-2.006;2022-10-30T08:24:20;100508.44;;;13.97;95.93
66668;BME280;57205;51.438;-2.006;2022-10-30T08:26:46;100510.34;;;13.96;96.00
66668;BME280;57205;51.438;-2.006;2022-10-30T08:29:11;100510.84;;;13.98;96.03
66668;BME280;57205;51.438;-2.006;2022-10-30T08:31:36;100520.97;;;14.06;95.75
66668;BME280;57205;51.438;-2.006;2022-10-30T08:34:02;100519.88;;;14.07;95.37
66668;BME280;57205;51.438;-2.006;2022-10-30T08:36:28;100527.66;;;14.09;95.80
66668;BME280;57205;51.438;-2.006;2022-10-30T08:38:53;100537.25;;;14.15;95.48
66668;BME280;57205;51.438;-2.006;2022-10-30T08:41:19;100538.00;;;14.20;94.97
66668;BME280;57205;51.438;-2.006;2022-10-30T08:43:44;100544.69;;;14.23;94.86
66668;BME280;57205;51.438;-2.006;2022-10-30T08:46:09;100545.47;;;14.28;94.86
66668;BME280;57205;51.438;-2.006;2022-10-30T08:48:34;100551.88;;;14.32;94.38
66668;BME280;57205;51.438;-2.006;2022-10-30T08:51:00;100540.22;;;14.37;94.92
66668;BME280;57205;51.438;-2.006;2022-10-30T08:53:25;100539.34;;;14.41;94.61
66668;BME280;57205;51.438;-2.006;2022-10-30T08:55:51;100537.44;;;14.42;94.60
66668;BME280;57205;51.438;-2.006;2022-10-30T08:58:16;100545.25;;;14.43;94.74
66668;BME280;57205;51.438;-2.006;2022-10-30T09:00:41;100535.72;;;14.51;94.09
66668;BME280;57205;51.438;-2.006;2022-10-30T09:03:07;100534.31;;;14.53;93.71
66668;BME280;57205;51.438;-2.006;2022-10-30T09:05:32;100546.72;;;14.54;93.82
66668;BME280;57205;51.438;-2.006;2022-10-30T09:07:57;100542.91;;;14.55;93.35
66668;BME280;57205;51.438;-2.006;2022-10-30T09:10:24;100552.59;;;14.56;93.03
66668;BME280;57205;51.438;-2.006;2022-10-30T09:12:53;100549.31;;;14.59;92.05
66668;BME280;57205;51.438;-2.006;2022-10-30T09:15:19;100546.03;;;14.62;92.31
66668;BME280;57205;51.438;-2.006;2022-10-30T09:17:45;100541.09;;;14.70;92.00
66668;BME280;57205;51.438;-2.006;2022-10-30T09:20:10;100542.28;;;14.77;91.55
66668;BME280;57205;51.438;-2.006;2022-10-30T09:22:39;100545.66;;;14.88;90.01
66668;BME280;57205;51.438;-2.006;2022-10-30T09:25:04;100528.72;;;15.01;89.15
66668;BME280;57205;51.438;-2.006;2022-10-30T09:27:29;100537.72;;;15.10;88.29
66668;BME280;57205;51.438;-2.006;2022-10-30T09:29:55;100536.47;;;15.21;87.38
66668;BME280;57205;51.438;-2.006;2022-10-30T09:32:20;100535.84;;;15.24;87.05
66668;BME280;57205;51.438;-2.006;2022-10-30T09:34:45;100532.50;;;15.32;86.38
66668;BME280;57205;51.438;-2.006;2022-10-30T09:37:11;100530.19;;;15.39;85.55
66668;BME280;57205;51.438;-2.006;2022-10-30T09:39:36;100522.41;;;15.37;84.83
66668;BME280;57205;51.438;-2.006;2022-10-30T09:47:21;100521.81;;;15.40;84.83
66668;BME280;57205;51.438;-2.006;2022-10-30T10:00:31;100508.53;;;15.30;84.25
66668;BME280;57205;51.438;-2.006;2022-10-30T10:05:27;100510.25;;;15.40;83.42
66668;BME280;57205;51.438;-2.006;2022-10-30T10:08:00;100507.47;;;15.45;83.18
66668;BME280;57205;51.438;-2.006;2022-10-30T10:12:58;100507.28;;;15.55;82.70
66668;BME280;57205;51.438;-2.006;2022-10-30T10:15:38;100501.41;;;15.53;82.84
66668;BME280;57205;51.438;-2.006;2022-10-30T10:18:10;100505.06;;;15.57;83.20
66668;BME280;57205;51.438;-2.006;2022-10-30T10:20:39;100508.88;;;15.56;82.67
66668;BME280;57205;51.438;-2.006;2022-10-30T10:23:49;100505.38;;;15.55;82.20
66668;BME280;57205;51.438;-2.006;2022-10-30T10:25:56;100510.56;;;15.52;81.78
66668;BME280;57205;51.438;-2.006;2022-10-30T10:33:30;100511.38;;;15.52;82.13
66668;BME280;57205;51.438;-2.006;2022-10-30T10:51:19;100514.97;;;15.75;80.23
66668;BME280;57205;51.438;-2.006;2022-10-30T10:53:59;100508.78;;;15.88;80.32
66668;BME280;57205;51.438;-2.006;2022-10-30T10:56:28;100518.94;;;16.05;80.00
66668;BME280;57205;51.438;-2.006;2022-10-30T10:58:56;100512.81;;;16.13;79.33
66668;BME280;57205;51.438;-2.006;2022-10-30T11:01:38;100504.31;;;16.19;78.71
66668;BME280;57205;51.438;-2.006;2022-10-30T11:04:10;100514.09;;;16.29;78.77
66668;BME280;57205;51.438;-2.006;2022-10-30T11:06:38;100513.06;;;16.38;78.52
66668;BME280;57205;51.438;-2.006;2022-10-30T11:09:16;100508.03;;;16.45;77.33
66668;BME280;57205;51.438;-2.006;2022-10-30T11:11:44;100510.53;;;16.55;76.21
66668;BME280;57205;51.438;-2.006;2022-10-30T11:14:14;100509.44;;;16.56;76.53
66668;BME280;57205;51.438;-2.006;2022-10-30T11:16:48;100504.66;;;16.53;76.96
66668;BME280;57205;51.438;-2.006;2022-10-30T11:19:16;100522.63;;;16.58;75.91
66668;BME280;57205;51.438;-2.006;2022-10-30T11:21:42;100526.13;;;16.58;76.30
66668;BME280;57205;51.438;-2.006;2022-10-30T11:24:29;100525.00;;;16.59;76.17
66668;BME280;57205;51.438;-2.006;2022-10-30T11:26:58;100516.91;;;16.59;75.56
66668;BME280;57205;51.438;-2.006;2022-10-30T11:29:39;100525.00;;;16.59;76.42
66668;BME280;57205;51.438;-2.006;2022-10-30T11:32:16;100512.75;;;16.53;77.34
66668;BME280;57205;51.438;-2.006;2022-10-30T11:34:42;100539.34;;;16.46;78.12
66668;BME280;57205;51.438;-2.006;2022-10-30T11:37:07;100526.91;;;16.23;78.58
66668;BME280;57205;51.438;-2.006;2022-10-30T11:40:00;100520.00;;;16.17;80.20
66668;BME280;57205;51.438;-2.006;2022-10-30T11:42:25;100521.91;;;16.17;80.37
66668;BME280;57205;51.438;-2.006;2022-10-30T11:44:52;100528.91;;;16.18;79.88
66668;BME280;57205;51.438;-2.006;2022-10-30T11:47:22;100534.13;;;16.14;80.25
66668;BME280;57205;51.438;-2.006;2022-10-30T11:49:54;100530.94;;;16.12;80.85
66668;BME280;57205;51.438;-2.006;2022-10-30T11:52:21;100539.59;;;16.23;80.45
66668;BME280;57205;51.438;-2.006;2022-10-30T11:54:48;100547.31;;;16.29;79.61
66668;BME280;57205;51.438;-2.006;2022-10-30T11:57:19;100533.31;;;16.27;79.79
66668;BME280;57205;51.438;-2.006;2022-10-30T11:59:46;100542.13;;;16.19;78.62
66668;BME280;57205;51.438;-2.006;2022-10-30T12:02:21;100531.53;;;16.09;78.87
66668;BME280;57205;51.438;-2.006;2022-10-30T12:04:49;100534.34;;;16.04;78.96
66668;BME280;57205;51.438;-2.006;2022-10-30T12:07:19;100533.94;;;15.97;79.05
66668;BME280;57205;51.438;-2.006;2022-10-30T12:09:48;100528.34;;;15.94;79.70
66668;BME280;57205;51.438;-2.006;2022-10-30T12:14:41;100538.03;;;15.81;78.51
66668;BME280;57205;51.438;-2.006;2022-10-30T12:17:07;100543.53;;;15.76;78.43
66668;BME280;57205;51.438;-2.006;2022-10-30T12:19:32;100557.34;;;15.75;78.72
66668;BME280;57205;51.438;-2.006;2022-10-30T12:21:59;100561.16;;;15.74;79.27
66668;BME280;57205;51.438;-2.006;2022-10-30T12:26:51;100556.03;;;15.72;80.08
66668;BME280;57205;51.438;-2.006;2022-10-30T12:29:18;100557.13;;;15.71;79.95
66668;BME280;57205;51.438;-2.006;2022-10-30T12:34:19;100558.53;;;15.69;81.05
66668;BME280;57205;51.438;-2.006;2022-10-30T12:36:49;100551.44;;;15.73;81.68
66668;BME280;57205;51.438;-2.006;2022-10-30T12:39:18;100562.81;;;15.83;81.81
66668;BME280;57205;51.438;-2.006;2022-10-30T12:41:50;100568.13;;;15.88;81.40
66668;BME280;57205;51.438;-2.006;2022-10-30T12:44:43;100566.91;;;16.08;81.16
66668;BME280;57205;51.438;-2.006;2022-10-30T12:47:19;100556.81;;;16.13;77.73
66668;BME280;57205;51.438;-2.006;2022-10-30T12:49:50;100551.53;;;16.08;78.23
66668;BME280;57205;51.438;-2.006;2022-10-30T12:57:34;100553.13;;;15.82;75.71
66668;BME280;57205;51.438;-2.006;2022-10-30T13:00:09;100555.44;;;15.75;75.16
66668;BME280;57205;51.438;-2.006;2022-10-30T13:05:04;100553.75;;;15.79;74.40
66668;BME280;57205;51.438;-2.006;2022-10-30T13:08:13;100556.44;;;15.79;73.65
66668;BME280;57205;51.438;-2.006;2022-10-30T13:10:33;100549.75;;;15.77;73.45
66668;BME280;57205;51.438;-2.006;2022-10-30T13:13:03;100555.13;;;15.77;73.26
66668;BME280;57205;51.438;-2.006;2022-10-30T13:15:40;100553.81;;;15.74;73.35
66668;BME280;57205;51.438;-2.006;2022-10-30T13:18:14;100556.03;;;15.72;73.38
66668;BME280;57205;51.438;-2.006;2022-10-30T13:20:40;100561.22;;;15.69;74.64
66668;BME280;57205;51.438;-2.006;2022-10-30T13:23:13;100562.53;;;15.71;74.78
66668;BME280;57205;51.438;-2.006;2022-10-30T13:28:09;100557.63;;;15.73;75.43
66668;BME280;57205;51.438;-2.006;2022-10-30T13:30:38;100547.94;;;15.72;75.60
66668;BME280;57205;51.438;-2.006;2022-10-30T13:38:46;100540.53;;;15.78;75.65
66668;BME280;57205;51.438;-2.006;2022-10-30T13:46:45;100555.44;;;15.89;73.91
66668;BME280;57205;51.438;-2.006;2022-10-30T13:51:52;100548.72;;;16.00;73.00
66668;BME280;57205;51.438;-2.006;2022-10-30T13:54:29;100546.25;;;16.03;73.57
66668;BME280;57205;51.438;-2.006;2022-10-30T13:56:55;100553.72;;;16.06;73.49
66668;BME280;57205;51.438;-2.006;2022-10-30T14:07:32;100545.50;;;16.25;72.68
66668;BME280;57205;51.438;-2.006;2022-10-30T14:10:02;100546.50;;;16.15;73.13
66668;BME280;57205;51.438;-2.006;2022-10-30T14:25:32;100553.09;;;16.23;73.38
66668;BME280;57205;51.438;-2.006;2022-10-30T14:27:58;100540.97;;;16.34;71.25
66668;BME280;57205;51.438;-2.006;2022-10-30T14:30:23;100554.47;;;16.34;70.73
66668;BME280;57205;51.438;-2.006;2022-10-30T14:32:51;100563.97;;;16.31;71.31
66668;BME280;57205;51.438;-2.006;2022-10-30T14:35:27;100554.28;;;16.30;71.07